X  Sluiten METAR luchtvaart weer gegevens         EBAW Antwerp
Temperatuur
8°C Temperatuur
6°C Dauwpunt
87% Vochtigheid



Wind
4 KM/U
2 MPH
1 M/S
2 KTS



90°
O
Huidig weer

Mostly Clear Grotendeels helder
Luchtdruk 1008 (hPa) - 29.77 (inHg)
Zicht 5 (mijl) - 8 (km)
Vliegveld
Vliegveld code EBAW

Locatie : Antwerp
Afstand: 22 (km)

Metar:
METAR EBAW 130250Z AUTO 09002KT 8000 // NCD 08/06 Q1008

Tijd: 13-05-2021 04:50 CEST